Date,TemperatureHighF,TemperatureAvgF,TemperatureLowF,DewpointHighF,DewpointAvgF,DewpointLowF,HumidityHigh,HumidityAvg,HumidityLow,PressureMaxIn,PressureMinIn,WindSpeedMaxMPH,WindSpeedAvgMPH,GustSpeedMaxMPH,PrecipitationSumIn
2013-6-21,60.6,60.1,59.5,56.7,56.2,55.9,89,87,85,29.91,29.86,16,7,22,0.06
2013-6-22,64.6,60.7,57.7,59.2,55.7,50.7,92,84,75,29.91,29.73,30,8,31,0.08
2013-6-23,63.3,58.1,54.9,56.3,53.4,50.5,94,85,70,29.88,29.70,21,8,28,0.41
2013-6-24,58.5,55.5,53.4,54.5,51.6,49.6,95,87,77,30.25,29.88,14,3,18,0.05
2013-6-25,62.8,56.7,52.0,50.7,47.4,41.0,91,73,46,30.40,30.25,12,2,14,0.00
2013-6-26,63.3,56.2,49.1,52.5,48.8,45.5,94,77,59,30.40,30.29,11,2,15,0.30
2013-6-27,57.9,54.8,51.1,52.3,49.0,45.3,95,81,65,30.29,30.12,13,3,16,0.01
2013-6-28,62.2,57.8,54.0,56.8,53.4,48.6,96,86,71,30.12,29.96,13,4,17,0.23
2013-6-29,61.5,58.0,54.0,58.3,52.6,46.2,97,83,64,30.25,29.93,13,4,16,0.21
2013-6-30,71.6,62.3,51.4,60.4,54.2,47.5,87,75,62,30.24,30.03,19,4,22,0.00
2013-7-1,65.1,61.5,57.6,58.3,54.2,50.5,91,78,62,30.03,29.98,14,4,18,0.00
2013-7-2,71.4,65.6,54.3,57.9,54.4,49.1,94,68,47,29.99,29.76,10,1,14,0.09
2013-7-3,63.7,60.9,59.0,60.3,58.6,57.2,96,92,85,29.96,29.67,12,2,15,0.31
2013-7-4,69.3,63.5,60.1,61.0,58.8,56.8,95,85,67,30.22,29.96,18,4,19,0.00
2013-7-5,71.6,64.6,59.5,60.6,57.4,53.6,93,78,56,30.42,30.22,11,3,13,0.00
2013-7-6,81.1,67.3,56.5,63.3,58.2,53.6,91,74,50,30.42,30.36,10,1,11,0.00
2013-7-7,77.5,68.2,57.7,60.8,56.9,46.8,93,70,35,30.46,30.40,12,2,16,0.00
2013-7-8,75.6,66.5,58.3,62.2,58.4,53.8,92,76,54,30.47,30.39,15,4,18,0.00
2013-7-9,73.6,65.1,56.3,57.9,53.0,41.5,92,67,36,30.40,30.22,14,3,15,0.00
2013-7-10,67.5,61.3,57.0,60.1,55.3,48.9,94,81,62,30.24,30.19,14,3,18,0.00
2013-7-11,63.0,59.1,55.8,52.3,50.3,48.4,83,73,61,30.22,30.19,13,3,15,0.00
2013-7-12,64.9,58.2,51.4,56.1,52.6,47.7,92,82,72,30.24,30.20,11,2,14,0.00
2013-7-13,69.3,61.9,55.8,57.7,55.4,52.9,95,80,61,30.24,30.20,11,1,12,0.00
2013-7-14,76.5,63.2,54.7,61.3,57.3,53.2,96,82,58,30.26,30.18,7,0,10,0.00
2013-7-15,76.8,67.4,60.1,61.0,57.3,50.5,90,72,41,30.21,30.16,11,2,13,0.00
2013-7-16,78.3,67.3,57.6,61.3,56.5,42.4,96,71,29,30.22,30.19,7,1,11,0.00
2013-7-17,78.6,69.4,61.3,64.0,58.9,54.9,86,70,52,30.24,30.21,9,1,11,0.00
2013-7-18,79.9,70.4,62.2,64.6,61.3,56.8,95,75,47,30.27,30.22,14,3,17,0.00
2013-7-19,77.9,69.1,59.7,63.0,58.4,54.5,85,70,51,30.27,30.21,17,4,21,0.00
2013-7-20,71.6,65.5,61.9,60.4,59.0,57.2,90,80,64,30.23,30.13,10,2,11,0.00
2013-7-21,89.2,73.7,60.4,63.7,61.0,57.6,94,68,39,30.15,30.03,10,1,11,0.00
2013-7-22,93.6,77.7,64.8,65.5,62.7,57.4,90,63,34,30.05,29.94,10,1,11,0.00
2013-7-23,86.7,76.4,66.9,67.6,62.6,55.0,89,65,36,29.96,29.86,13,1,13,0.00
2013-7-24,77.2,71.2,66.4,64.8,60.8,53.2,85,71,45,29.97,29.87,15,2,17,0.00
2013-7-25,84.7,71.7,61.0,66.4,61.3,57.7,93,71,49,29.97,29.90,14,1,16,0.00
2013-7-26,81.7,71.1,64.9,70.2,65.3,61.7,94,82,63,29.96,29.85,12,1,14,0.16
2013-7-27,77.4,70.5,65.3,69.4,66.1,63.7,96,86,68,29.86,29.64,17,1,26,0.68
2013-7-28,75.4,68.8,64.2,66.7,60.7,57.4,96,77,56,29.88,29.60,15,4,20,0.32
2013-7-29,73.2,68.1,63.7,61.7,59.6,56.8,89,75,59,29.97,29.86,19,4,23,0.00
2013-7-30,68.7,64.5,61.3,62.6,58.7,55.6,95,82,68,30.01,29.85,21,6,23,0.16
2013-7-31,72.0,67.3,63.9,64.9,61.9,58.3,93,83,67,30.04,29.88,17,4,19,0.02
2013-8-1,91.0,77.5,65.8,68.0,65.1,62.1,90,68,42,30.00,29.83,11,1,12,0.00
2013-8-2,93.9,78.5,68.4,73.8,66.4,61.3,81,67,46,29.84,29.71,10,1,14,0.00
2013-8-3,72.7,69.4,63.5,64.0,58.7,51.8,83,70,52,30.13,29.81,19,4,22,0.00
2013-8-4,81.7,68.7,59.2,58.6,56.0,50.4,90,66,39,30.15,30.08,10,1,13,0.00
2013-8-5,85.6,71.6,59.4,63.0,58.6,55.0,89,66,42,30.09,29.78,14,1,25,0.06
2013-8-6,71.1,66.0,60.4,61.9,58.4,56.3,87,77,62,30.00,29.83,23,4,25,0.00
2013-8-7,63.7,60.5,58.1,58.6,57.0,54.7,92,88,81,29.97,29.85,15,3,17,0.12
2013-8-8,70.0,63.1,57.9,57.0,54.9,52.0,89,76,56,30.14,29.93,13,2,15,0.00
2013-8-9,73.8,64.6,56.8,60.8,56.4,52.0,94,76,52,30.13,30.05,15,2,17,0.00
2013-8-10,66.0,62.9,60.8,60.8,53.4,44.1,92,72,47,30.15,30.06,17,2,20,0.00
2013-8-11,70.0,63.8,58.6,60.6,56.3,51.8,89,77,61,30.13,29.97,15,3,20,0.04
2013-8-12,68.2,63.7,60.3,59.7,54.6,48.2,94,73,51,29.98,29.94,13,2,16,0.00
2013-8-13,64.6,60.2,55.6,56.3,52.5,48.9,91,76,64,30.16,29.96,15,3,19,0.26
2013-8-14,69.3,61.6,54.9,57.4,53.1,50.4,94,75,55,30.20,30.15,10,1,12,0.00
2013-8-15,71.1,62.3,54.3,63.7,57.2,51.8,95,84,62,30.19,30.06,12,2,19,0.05
2013-8-16,79.2,66.9,59.2,61.5,58.5,53.1,92,76,51,30.06,29.96,17,2,20,0.02
2013-8-17,74.7,67.6,63.7,62.8,60.6,56.3,93,79,59,29.98,29.84,17,4,23,0.01
2013-8-18,71.2,66.0,61.0,62.8,59.2,56.8,95,79,62,29.88,29.76,19,5,21,0.24
2013-8-19,68.2,61.9,57.4,59.7,55.7,52.2,94,81,59,30.27,29.86,12,2,16,0.28
2013-8-20,74.1,63.7,56.7,59.2,55.8,51.3,93,77,47,30.36,30.27,6,0,7,0.00
2013-8-21,77.7,65.4,55.9,59.5,54.8,52.3,89,71,43,30.32,30.16,13,1,14,0.00
2013-8-22,70.0,63.7,56.5,62.8,58.8,54.1,94,85,68,30.16,30.08,8,0,10,0.00
2013-8-23,81.7,69.5,61.0,64.0,59.8,55.8,97,74,45,30.09,29.92,7,1,10,0.00
2013-8-24,72.1,65.0,61.2,63.5,59.0,55.8,95,81,67,29.92,29.80,10,1,12,0.10
2013-8-25,72.1,63.0,55.8,63.3,59.5,-99.9,98,89,73,29.97,29.80,9,-2,9,0.00
2013-8-26,74.7,65.2,57.4,60.1,53.9,48.0,90,69,40,30.04,29.97,16,3,16,0.00
2013-8-27,77.0,65.3,55.0,56.1,51.9,47.8,83,64,38,30.03,29.97,10,1,11,0.00
2013-8-28,76.5,64.5,57.7,62.1,56.3,49.1,96,77,41,30.17,30.03,11,1,13,0.00
2013-8-29,75.4,64.3,55.4,60.6,55.7,50.2,95,76,45,30.17,30.12,11,1,14,0.00
2013-8-30,72.7,65.1,58.8,62.8,59.2,56.8,93,82,61,30.13,30.06,14,3,14,0.00
2013-8-31,67.1,63.2,55.9,62.1,55.6,46.0,92,77,60,30.29,30.05,15,3,18,0.00
2013-9-1,63.0,59.1,54.0,54.1,49.4,46.0,81,71,58,30.33,30.25,16,3,20,0.00
2013-9-2,67.5,63.1,58.6,59.7,56.5,52.3,90,79,73,30.29,30.18,17,4,19,0.00
2013-9-3,75.7,66.6,60.6,63.1,61.0,58.6,94,83,64,30.33,30.27,9,1,10,0.00
2013-9-4,81.0,68.5,58.8,65.3,61.4,57.0,96,80,55,30.29,30.05,7,1,10,0.00
2013-9-5,91.0,73.6,59.9,65.8,61.8,56.1,95,70,31,30.05,29.76,10,1,11,0.00
2013-9-6,75.6,67.8,62.2,63.3,60.8,58.1,91,79,55,29.88,29.71,11,1,13,0.14
2013-9-7,70.5,64.1,59.4,60.4,54.8,46.4,91,73,49,30.07,29.88,12,1,15,0.00
2013-9-8,66.0,59.0,54.0,59.4,54.1,49.6,94,84,71,30.10,30.03,15,1,18,0.81
2013-9-9,60.3,54.2,51.3,54.5,51.8,48.9,95,92,74,30.09,29.88,12,2,16,0.94
2013-9-10,60.4,54.9,51.3,55.9,52.6,49.6,96,92,75,29.92,29.75,23,4,27,1.17
2013-9-11,65.1,59.2,53.8,57.6,54.8,52.3,98,86,69,29.99,29.74,16,4,19,0.23
2013-9-12,65.8,58.9,54.7,58.5,55.5,53.4,97,89,71,30.08,29.97,11,1,16,0.42
2013-9-13,61.2,58.0,54.3,58.8,55.4,52.3,97,91,77,30.09,29.96,13,2,16,0.02
2013-9-14,63.5,59.6,55.8,60.4,56.6,49.5,97,90,73,29.96,29.74,17,4,22,0.22
2013-9-15,62.4,56.2,49.8,52.9,48.7,43.0,93,77,53,29.96,29.52,24,4,26,0.17
2013-9-16,58.8,53.5,46.9,54.1,46.3,40.3,94,78,54,29.55,29.47,24,5,29,0.39
2013-9-17,55.8,51.0,48.4,50.4,47.3,43.5,95,87,75,29.57,29.33,19,4,25,0.38
2013-9-18,58.3,52.8,49.3,54.1,49.5,46.0,97,89,67,29.72,29.33,13,1,18,0.22
2013-9-19,57.9,54.4,50.9,54.3,50.0,47.5,95,86,69,29.86,29.72,19,4,23,0.27
2013-9-20,61.2,57.5,51.6,55.6,53.1,48.7,96,85,72,30.18,29.76,14,2,16,0.00
2013-9-21,64.8,57.9,50.9,54.9,52.3,48.4,93,82,65,30.29,30.17,11,2,14,0.00
2013-9-22,66.7,61.6,58.8,62.6,59.1,54.7,97,92,84,30.34,30.28,10,2,13,0.00
2013-9-23,68.4,61.9,56.3,61.7,58.7,54.3,97,90,73,30.33,30.15,11,1,12,0.00
2013-9-24,66.9,59.6,55.8,60.8,56.7,54.5,98,90,74,30.15,29.96,6,0,6,0.00
2013-9-25,67.8,59.7,54.1,59.0,55.3,52.0,95,86,69,29.95,29.81,4,0,6,0.00
2013-9-26,61.2,57.5,52.3,56.8,50.9,45.7,92,79,60,30.08,29.84,12,2,16,0.00
2013-9-27,63.3,52.8,44.6,51.4,46.3,41.9,92,79,64,30.09,29.98,11,1,12,0.00
2013-9-28,64.4,53.5,44.8,49.8,44.4,41.4,91,73,53,29.99,29.84,13,3,16,0.00
2013-9-29,64.2,54.7,47.7,48.6,45.3,42.3,84,72,54,29.86,29.76,17,5,20,0.00
2013-9-30,62.4,52.6,44.4,48.9,44.4,41.0,92,74,58,29.86,29.78,17,3,17,0.00
2013-10-1,63.0,51.3,42.1,48.7,43.3,38.3,88,75,55,29.96,29.86,12,2,15,0.00
2013-10-2,62.4,51.2,41.7,46.0,42.4,38.1,87,73,51,30.03,29.96,16,3,17,0.00
2013-10-3,63.9,54.4,46.0,50.4,44.2,39.9,79,69,52,30.03,29.88,13,2,17,0.00
2013-10-4,70.7,61.6,53.8,63.3,56.9,50.2,96,85,72,29.94,29.85,21,4,22,0.64
2013-10-5,65.7,60.3,56.3,60.3,56.3,53.4,96,87,67,30.21,29.93,10,1,14,0.00
2013-10-6,64.8,56.7,50.5,57.6,52.1,47.8,96,85,65,30.30,30.21,4,0,5,0.00
2013-10-7,66.6,55.3,46.2,55.6,50.3,44.6,98,84,62,30.31,30.25,9,0,10,0.00
2013-10-8,64.2,58.2,50.5,58.5,54.9,48.2,94,89,77,30.27,30.20,11,1,12,0.00
2013-10-9,60.4,57.4,48.9,57.4,52.1,44.6,95,83,67,30.20,29.81,18,3,20,0.04
2013-10-10,53.8,49.1,45.3,47.7,44.4,41.0,95,84,68,29.81,29.70,12,2,18,0.15
2013-10-11,47.8,46.5,44.4,46.8,44.5,42.3,98,93,90,30.03,29.79,9,1,11,0.51
2013-10-12,53.2,47.3,40.6,47.7,44.2,39.4,100,89,71,30.14,29.91,7,1,11,0.48
2013-10-13,49.3,47.5,46.0,47.7,45.8,44.1,95,94,92,29.91,29.71,26,6,32,2.09
2013-10-14,52.0,50.0,48.0,50.0,48.0,46.6,95,93,89,29.87,29.75,14,2,16,0.11
2013-10-15,53.2,50.3,47.7,50.0,48.3,46.0,95,93,87,29.81,29.67,12,2,19,0.28
2013-10-16,55.8,49.9,43.5,53.8,47.9,42.3,96,93,82,29.93,29.76,13,1,15,0.05
2013-10-17,60.4,56.4,49.6,54.1,51.1,47.1,94,83,68,29.99,29.76,22,6,26,0.00
2013-10-18,54.7,51.2,48.0,52.7,49.5,46.0,96,94,92,30.06,29.96,9,-4,9,0.01
2013-10-19,61.7,54.7,48.2,56.7,51.7,46.2,95,90,77,29.96,29.71,11,2,18,0.37
2013-10-20,64.6,58.7,54.3,57.7,54.7,52.3,96,87,72,29.81,29.74,23,4,26,0.02
2013-10-21,63.7,58.7,54.5,57.7,54.5,51.6,93,86,79,29.86,29.78,17,4,20,0.00
2013-10-22,71.8,63.0,57.4,60.4,57.1,54.1,92,82,66,29.78,29.50,15,3,20,0.01
2013-10-23,65.3,61.1,57.4,58.1,55.4,52.2,92,82,68,29.80,29.47,27,7,30,0.06
2013-10-24,62.8,54.4,48.0,53.1,49.4,46.0,94,84,60,30.04,29.80,9,1,11,0.00
2013-10-25,64.2,57.2,49.8,58.8,53.8,47.3,92,89,81,29.97,29.75,15,2,19,0.03
2013-10-26,65.7,60.8,58.3,57.7,55.4,52.2,92,83,63,29.80,29.67,21,4,23,0.01
2013-10-27,61.2,58.1,55.4,55.9,51.9,48.4,92,80,72,29.67,29.42,29,10,34,0.40
2013-10-28,61.9,57.0,51.3,54.9,50.5,46.0,93,79,63,29.61,29.10,37,12,48,0.61
2013-10-29,55.0,51.0,47.5,48.0,45.8,43.3,89,83,71,29.97,29.60,24,8,27,0.11
2013-10-30,55.8,49.9,46.0,47.5,44.1,42.3,90,81,62,30.19,29.96,17,3,19,0.00
2013-10-31,56.5,51.2,46.2,49.5,45.4,42.4,88,81,69,30.19,29.98,20,6,25,0.01
2013-11-1,54.1,52.3,49.5,50.5,48.9,46.6,91,88,84,30.01,29.65,19,5,21,0.02
2013-11-2,55.6,51.2,47.8,51.6,48.6,45.7,95,91,78,29.65,29.41,27,3,27,0.38
2013-11-3,53.4,49.7,45.7,47.3,43.6,40.5,88,80,69,29.53,29.40,24,8,32,0.40
2013-11-4,53.8,48.1,45.5,51.4,44.3,38.7,96,87,69,29.40,28.93,24,5,28,1.38
2013-11-5,50.5,45.8,42.6,47.8,42.2,39.4,94,87,74,29.43,29.19,20,4,24,0.43
2013-11-6,58.3,51.8,48.9,54.7,46.7,40.8,95,83,72,29.55,29.34,28,6,33,0.20
2013-11-7,58.5,53.6,49.5,55.2,49.6,45.9,92,87,77,29.76,29.49,33,4,33,0.10
2013-11-8,54.0,48.1,43.5,48.7,45.6,41.9,98,91,77,29.80,29.53,11,1,13,0.14
2013-11-9,50.5,47.6,43.5,47.3,42.7,40.5,93,83,72,29.78,29.52,19,5,24,0.72
2013-11-10,49.6,45.1,41.5,42.1,40.0,38.5,92,83,70,30.22,29.57,12,1,16,0.08
2013-11-11,49.6,45.6,40.3,43.3,39.9,37.4,92,81,68,30.34,30.22,16,2,20,0.00
2013-11-12,50.0,46.6,44.2,48.4,43.2,38.5,95,88,74,30.38,30.17,17,3,23,0.09
2013-11-13,52.9,45.9,41.4,44.4,41.0,38.3,91,83,64,30.49,30.28,8,1,10,0.01
2013-11-14,49.6,45.7,43.9,47.3,42.2,39.4,93,88,80,30.28,29.99,14,3,18,0.27
2013-11-15,52.5,45.2,40.5,45.9,41.5,37.4,93,87,75,30.49,30.19,12,1,13,0.00
2013-11-16,44.1,41.7,37.9,43.0,40.4,36.1,96,95,93,30.47,30.33,10,1,10,0.02
2013-11-17,45.5,44.2,43.0,44.1,42.8,41.7,95,95,93,30.34,30.06,6,0,6,0.00
2013-11-18,45.0,42.9,41.2,42.1,39.5,37.6,94,88,80,30.06,29.71,19,3,20,0.00
2013-11-19,46.8,42.9,38.1,43.5,39.8,34.9,95,89,81,29.87,29.65,13,2,16,0.00
2013-11-20,42.8,38.8,35.6,38.1,34.8,31.1,92,86,67,29.87,29.35,19,3,22,0.01
2013-11-21,40.8,37.6,34.2,36.0,34.2,31.3,93,88,81,29.82,29.35,13,3,14,0.41
2013-11-22,43.5,39.5,34.5,39.4,36.0,31.6,97,87,83,30.04,29.82,15,2,17,0.01
2013-11-23,45.9,41.7,38.8,39.4,37.3,34.3,92,85,74,30.19,30.04,12,2,14,0.00
2013-11-24,47.1,44.1,41.4,43.3,39.1,36.0,92,83,69,30.41,30.17,13,2,18,0.00
2013-11-25,46.8,42.6,40.8,39.4,36.9,35.1,88,80,73,30.55,30.41,13,2,14,0.00
2013-11-26,46.8,43.3,40.3,40.8,39.1,37.2,92,85,74,30.58,30.51,9,0,11,0.01
2013-11-27,48.4,44.7,40.6,44.8,41.4,37.9,94,88,75,30.52,30.45,14,2,14,0.00
2013-11-28,50.7,48.4,46.4,48.2,45.5,40.6,95,90,78,30.50,30.45,7,1,10,0.01
2013-11-29,48.9,46.2,42.6,45.0,40.6,37.2,91,81,71,30.47,29.93,26,5,32,0.15
2013-11-30,50.2,45.3,42.4,43.9,40.7,37.0,92,84,69,30.36,29.91,12,2,21,0.03
2013-12-1,48.9,46.0,42.8,45.1,41.7,39.0,91,85,75,30.51,30.34,7,1,10,0.00
2013-12-2,47.8,41.9,36.1,40.5,37.4,33.4,91,84,71,30.57,30.44,6,0,9,0.00
2013-12-3,44.2,37.2,30.7,39.2,34.5,28.9,94,90,80,30.45,30.27,6,0,7,0.01
2013-12-4,47.1,43.2,39.0,45.1,39.1,35.4,93,86,78,30.37,30.21,11,2,17,0.04
2013-12-5,49.5,42.8,38.5,42.8,36.6,30.4,86,79,62,30.37,29.74,37,9,49,0.17
2013-12-6,42.6,40.3,36.0,34.5,31.5,27.1,90,71,55,30.28,29.97,26,8,29,0.20
2013-12-7,47.8,43.9,39.7,44.4,39.2,30.7,93,84,65,30.29,30.19,14,3,16,0.05
2013-12-8,49.8,47.5,44.8,45.7,43.7,41.7,93,87,82,30.22,30.17,22,6,26,0.01
2013-12-9,51.3,49.0,45.1,46.4,45.1,42.3,92,87,83,30.47,30.22,24,6,24,0.00
2013-12-10,48.2,40.5,35.6,42.3,36.3,32.5,93,85,67,30.53,30.47,9,0,11,0.00
2013-12-11,46.2,36.1,31.3,39.6,33.3,29.3,94,90,76,30.50,30.41,6,1,10,0.00
2013-12-12,41.4,36.0,32.5,37.6,33.6,31.3,95,91,80,30.42,30.26,13,2,16,0.00
2013-12-13,41.5,36.8,33.6,39.9,34.8,31.6,95,93,88,30.27,30.11,12,2,13,0.00
2013-12-14,48.0,44.0,39.7,43.9,40.4,36.5,94,87,75,30.30,30.11,15,4,23,0.09
2013-12-15,49.1,46.6,43.5,46.0,41.5,37.8,89,82,74,30.27,30.15,24,7,30,0.06
2013-12-16,54.3,50.3,47.1,43.7,42.1,39.7,85,74,60,30.17,30.08,23,7,25,0.00
2013-12-17,50.7,44.4,41.0,43.5,40.4,38.8,92,86,73,30.24,30.09,15,2,16,0.00
2013-12-18,49.3,46.0,41.4,43.2,41.4,39.2,92,84,75,30.09,29.57,18,4,21,0.02
2013-12-19,49.1,46.1,40.3,46.6,41.7,36.9,92,85,68,29.84,29.44,22,5,23,0.35
2013-12-20,48.0,43.6,40.3,40.8,39.1,37.2,91,84,71,30.26,29.84,23,6,24,0.00
2013-12-21,46.4,44.8,43.7,42.1,40.2,37.8,91,84,79,30.22,29.87,24,9,35,0.15
2013-12-22,50.7,47.0,45.0,45.3,42.4,40.5,88,84,78,29.90,29.77,25,9,33,0.07
2013-12-23,53.2,46.6,42.3,45.9,41.8,38.3,88,83,73,29.95,29.28,33,7,43,0.10
2013-12-24,53.2,50.6,45.9,47.7,44.5,41.5,92,80,69,29.28,29.03,36,10,45,0.25
2013-12-25,47.3,44.1,37.6,44.6,39.8,35.2,93,85,74,29.27,28.98,21,4,27,0.12
2013-12-26,45.7,41.5,36.9,41.5,38.3,34.7,93,89,79,29.56,29.26,11,2,14,0.00
2013-12-27,49.3,45.5,39.6,46.6,41.8,36.1,93,87,80,29.53,29.23,25,7,33,0.20
2013-12-28,48.6,45.4,41.5,43.7,41.8,38.1,92,87,78,29.66,29.31,16,4,20,0.12
2013-12-29,46.6,42.3,39.7,41.5,38.5,36.1,92,86,74,30.16,29.66,15,4,18,0.02
2013-12-30,45.7,42.1,38.1,41.2,38.0,35.4,91,85,78,30.17,29.92,23,6,29,0.03
2013-12-31,47.8,44.7,42.1,40.5,39.1,36.0,89,81,66,30.01,29.70,18,5,22,0.09
2014-1-1,48.4,44.7,41.4,45.3,40.9,38.3,90,87,80,29.73,29.33,19,5,22,0.13
2014-1-2,50.9,48.7,44.2,45.9,44.0,40.3,91,84,78,29.61,29.27,21,6,27,0.06